sensor_id;sensor_type;location;lat;lon;timestamp;temperature;humidity
35559;DHT22;21661;50.794;-1.066;2023-11-22T00:00:43;8.60;99.90
35559;DHT22;21661;50.794;-1.066;2023-11-22T00:03:09;8.60;99.90
35559;DHT22;21661;50.794;-1.066;2023-11-22T00:05:34;8.60;99.90
35559;DHT22;21661;50.794;-1.066;2023-11-22T00:08:00;8.60;99.90
35559;DHT22;21661;50.794;-1.066;2023-11-22T00:10:25;8.60;99.90
35559;DHT22;21661;50.794;-1.066;2023-11-22T00:12:51;8.60;99.90
35559;DHT22;21661;50.794;-1.066;2023-11-22T00:15:17;8.60;99.90
35559;DHT22;21661;50.794;-1.066;2023-11-22T00:17:47;8.50;99.90
35559;DHT22;21661;50.794;-1.066;2023-11-22T00:20:12;8.50;99.90
35559;DHT22;21661;50.794;-1.066;2023-11-22T00:22:38;8.50;99.90
35559;DHT22;21661;50.794;-1.066;2023-11-22T00:25:04;8.50;99.90
35559;DHT22;21661;50.794;-1.066;2023-11-22T00:27:30;8.50;99.90
35559;DHT22;21661;50.794;-1.066;2023-11-22T00:29:59;8.50;99.90
35559;DHT22;21661;50.794;-1.066;2023-11-22T00:32:25;8.50;99.90
35559;DHT22;21661;50.794;-1.066;2023-11-22T00:34:53;8.40;99.90
35559;DHT22;21661;50.794;-1.066;2023-11-22T00:37:19;8.30;99.90
35559;DHT22;21661;50.794;-1.066;2023-11-22T00:39:45;8.20;99.90
35559;DHT22;21661;50.794;-1.066;2023-11-22T00:42:10;8.20;99.90
35559;DHT22;21661;50.794;-1.066;2023-11-22T00:44:37;8.20;99.90
35559;DHT22;21661;50.794;-1.066;2023-11-22T00:47:03;8.10;99.90
35559;DHT22;21661;50.794;-1.066;2023-11-22T00:49:28;8.20;99.90
35559;DHT22;21661;50.794;-1.066;2023-11-22T00:51:54;8.10;99.90
35559;DHT22;21661;50.794;-1.066;2023-11-22T00:54:20;8.10;99.90
35559;DHT22;21661;50.794;-1.066;2023-11-22T00:56:46;8.10;99.90
35559;DHT22;21661;50.794;-1.066;2023-11-22T00:59:12;8.10;99.90
35559;DHT22;21661;50.794;-1.066;2023-11-22T01:01:38;8.20;99.90
35559;DHT22;21661;50.794;-1.066;2023-11-22T01:04:03;8.00;99.90
35559;DHT22;21661;50.794;-1.066;2023-11-22T01:06:30;8.10;99.90
35559;DHT22;21661;50.794;-1.066;2023-11-22T01:08:57;8.20;99.90
35559;DHT22;21661;50.794;-1.066;2023-11-22T01:11:23;8.10;99.90
35559;DHT22;21661;50.794;-1.066;2023-11-22T01:13:48;8.20;99.90
35559;DHT22;21661;50.794;-1.066;2023-11-22T01:16:14;8.10;99.90
35559;DHT22;21661;50.794;-1.066;2023-11-22T01:18:39;8.10;99.90
35559;DHT22;21661;50.794;-1.066;2023-11-22T01:21:06;8.10;99.90
35559;DHT22;21661;50.794;-1.066;2023-11-22T01:23:32;8.10;99.90
35559;DHT22;21661;50.794;-1.066;2023-11-22T01:25:58;8.10;99.90
35559;DHT22;21661;50.794;-1.066;2023-11-22T01:28:25;8.00;99.90
35559;DHT22;21661;50.794;-1.066;2023-11-22T01:30:53;8.00;99.90
35559;DHT22;21661;50.794;-1.066;2023-11-22T01:33:22;8.00;99.90
35559;DHT22;21661;50.794;-1.066;2023-11-22T01:35:48;8.10;99.90
35559;DHT22;21661;50.794;-1.066;2023-11-22T01:38:15;7.90;99.90
35559;DHT22;21661;50.794;-1.066;2023-11-22T01:40:45;7.90;99.90
35559;DHT22;21661;50.794;-1.066;2023-11-22T01:43:16;7.90;99.90
35559;DHT22;21661;50.794;-1.066;2023-11-22T01:45:42;7.90;99.90
35559;DHT22;21661;50.794;-1.066;2023-11-22T01:48:08;7.90;99.90
35559;DHT22;21661;50.794;-1.066;2023-11-22T01:50:37;8.00;99.90
35559;DHT22;21661;50.794;-1.066;2023-11-22T01:53:03;7.90;99.90
35559;DHT22;21661;50.794;-1.066;2023-11-22T01:55:29;8.00;99.90
35559;DHT22;21661;50.794;-1.066;2023-11-22T01:57:56;7.90;99.90
35559;DHT22;21661;50.794;-1.066;2023-11-22T02:00:23;7.90;99.90
35559;DHT22;21661;50.794;-1.066;2023-11-22T02:02:50;7.90;99.90
35559;DHT22;21661;50.794;-1.066;2023-11-22T02:05:16;7.90;99.90
35559;DHT22;21661;50.794;-1.066;2023-11-22T02:07:42;8.00;99.90
35559;DHT22;21661;50.794;-1.066;2023-11-22T02:10:08;8.00;99.90
35559;DHT22;21661;50.794;-1.066;2023-11-22T02:12:33;8.00;99.90
35559;DHT22;21661;50.794;-1.066;2023-11-22T02:14:59;8.00;99.90
35559;DHT22;21661;50.794;-1.066;2023-11-22T02:17:25;8.10;99.90
35559;DHT22;21661;50.794;-1.066;2023-11-22T02:19:51;8.00;99.90
35559;DHT22;21661;50.794;-1.066;2023-11-22T02:22:17;8.10;99.90
35559;DHT22;21661;50.794;-1.066;2023-11-22T02:24:42;8.00;99.90
35559;DHT22;21661;50.794;-1.066;2023-11-22T02:27:08;8.00;99.90
35559;DHT22;21661;50.794;-1.066;2023-11-22T02:29:34;8.00;99.90
35559;DHT22;21661;50.794;-1.066;2023-11-22T02:31:59;8.00;99.90
35559;DHT22;21661;50.794;-1.066;2023-11-22T02:34:25;7.90;99.90
35559;DHT22;21661;50.794;-1.066;2023-11-22T02:36:50;8.00;99.90
35559;DHT22;21661;50.794;-1.066;2023-11-22T02:39:16;8.00;99.90
35559;DHT22;21661;50.794;-1.066;2023-11-22T02:41:42;8.00;99.90
35559;DHT22;21661;50.794;-1.066;2023-11-22T02:44:08;8.00;99.90
35559;DHT22;21661;50.794;-1.066;2023-11-22T02:46:33;8.00;99.90
35559;DHT22;21661;50.794;-1.066;2023-11-22T02:48:59;8.00;99.90
35559;DHT22;21661;50.794;-1.066;2023-11-22T02:51:25;8.00;99.90
35559;DHT22;21661;50.794;-1.066;2023-11-22T02:53:51;8.00;99.90
35559;DHT22;21661;50.794;-1.066;2023-11-22T02:56:17;7.90;99.90
35559;DHT22;21661;50.794;-1.066;2023-11-22T02:58:43;7.90;99.90
35559;DHT22;21661;50.794;-1.066;2023-11-22T03:01:08;7.90;99.90
35559;DHT22;21661;50.794;-1.066;2023-11-22T03:03:34;8.00;99.90
35559;DHT22;21661;50.794;-1.066;2023-11-22T03:06:00;7.90;99.90
35559;DHT22;21661;50.794;-1.066;2023-11-22T03:08:26;8.00;99.90
35559;DHT22;21661;50.794;-1.066;2023-11-22T03:10:53;8.00;99.90
35559;DHT22;21661;50.794;-1.066;2023-11-22T03:13:18;8.00;99.90
35559;DHT22;21661;50.794;-1.066;2023-11-22T03:15:44;7.90;99.90
35559;DHT22;21661;50.794;-1.066;2023-11-22T03:18:10;7.90;99.90
35559;DHT22;21661;50.794;-1.066;2023-11-22T03:20:36;7.90;99.90
35559;DHT22;21661;50.794;-1.066;2023-11-22T03:23:02;7.90;99.90
35559;DHT22;21661;50.794;-1.066;2023-11-22T03:25:29;7.90;99.90
35559;DHT22;21661;50.794;-1.066;2023-11-22T03:27:54;7.90;99.90
35559;DHT22;21661;50.794;-1.066;2023-11-22T03:30:20;7.90;99.90
35559;DHT22;21661;50.794;-1.066;2023-11-22T03:32:46;7.80;99.90
35559;DHT22;21661;50.794;-1.066;2023-11-22T03:35:11;7.80;99.90
35559;DHT22;21661;50.794;-1.066;2023-11-22T03:37:37;7.90;99.90
35559;DHT22;21661;50.794;-1.066;2023-11-22T03:40:03;7.90;99.90
35559;DHT22;21661;50.794;-1.066;2023-11-22T03:42:29;7.90;99.90
35559;DHT22;21661;50.794;-1.066;2023-11-22T03:44:55;7.90;99.90
35559;DHT22;21661;50.794;-1.066;2023-11-22T03:47:21;7.80;99.90
35559;DHT22;21661;50.794;-1.066;2023-11-22T03:49:46;7.70;99.90
35559;DHT22;21661;50.794;-1.066;2023-11-22T03:52:12;7.80;99.90
35559;DHT22;21661;50.794;-1.066;2023-11-22T03:54:39;7.70;99.90
35559;DHT22;21661;50.794;-1.066;2023-11-22T03:57:05;7.70;99.90
35559;DHT22;21661;50.794;-1.066;2023-11-22T03:59:30;7.70;99.90
35559;DHT22;21661;50.794;-1.066;2023-11-22T04:01:56;7.70;99.90
35559;DHT22;21661;50.794;-1.066;2023-11-22T04:04:22;7.70;99.90
35559;DHT22;21661;50.794;-1.066;2023-11-22T04:06:48;7.70;99.90
35559;DHT22;21661;50.794;-1.066;2023-11-22T04:09:14;7.70;99.90
35559;DHT22;21661;50.794;-1.066;2023-11-22T04:11:42;7.70;99.90
35559;DHT22;21661;50.794;-1.066;2023-11-22T04:14:08;7.80;99.90
35559;DHT22;21661;50.794;-1.066;2023-11-22T04:16:33;7.70;99.90
35559;DHT22;21661;50.794;-1.066;2023-11-22T04:18:59;7.70;99.90
35559;DHT22;21661;50.794;-1.066;2023-11-22T04:21:25;7.60;99.90
35559;DHT22;21661;50.794;-1.066;2023-11-22T04:23:51;7.60;99.90
35559;DHT22;21661;50.794;-1.066;2023-11-22T04:26:16;7.60;99.90
35559;DHT22;21661;50.794;-1.066;2023-11-22T04:28:42;7.60;99.90
35559;DHT22;21661;50.794;-1.066;2023-11-22T04:31:08;7.50;99.90
35559;DHT22;21661;50.794;-1.066;2023-11-22T04:33:36;7.60;99.90
35559;DHT22;21661;50.794;-1.066;2023-11-22T04:36:03;7.60;99.90
35559;DHT22;21661;50.794;-1.066;2023-11-22T04:38:29;7.60;99.90
35559;DHT22;21661;50.794;-1.066;2023-11-22T04:40:54;7.60;99.90
35559;DHT22;21661;50.794;-1.066;2023-11-22T04:43:20;7.70;99.90
35559;DHT22;21661;50.794;-1.066;2023-11-22T04:45:45;7.50;99.90
35559;DHT22;21661;50.794;-1.066;2023-11-22T04:48:11;7.50;99.90
35559;DHT22;21661;50.794;-1.066;2023-11-22T04:50:40;7.50;99.90
35559;DHT22;21661;50.794;-1.066;2023-11-22T04:53:06;7.50;99.90
35559;DHT22;21661;50.794;-1.066;2023-11-22T04:55:31;7.60;99.90
35559;DHT22;21661;50.794;-1.066;2023-11-22T04:57:57;7.60;99.90
35559;DHT22;21661;50.794;-1.066;2023-11-22T05:00:23;7.60;99.90
35559;DHT22;21661;50.794;-1.066;2023-11-22T05:02:49;7.60;99.90
35559;DHT22;21661;50.794;-1.066;2023-11-22T05:05:15;7.60;99.90
35559;DHT22;21661;50.794;-1.066;2023-11-22T05:07:40;7.60;99.90
35559;DHT22;21661;50.794;-1.066;2023-11-22T05:10:06;7.70;99.90
35559;DHT22;21661;50.794;-1.066;2023-11-22T05:12:35;7.70;99.90
35559;DHT22;21661;50.794;-1.066;2023-11-22T05:15:02;7.80;99.90
35559;DHT22;21661;50.794;-1.066;2023-11-22T05:17:28;7.80;99.90
35559;DHT22;21661;50.794;-1.066;2023-11-22T05:19:53;7.90;99.90
35559;DHT22;21661;50.794;-1.066;2023-11-22T05:22:19;7.90;99.90
35559;DHT22;21661;50.794;-1.066;2023-11-22T05:24:44;7.90;99.90
35559;DHT22;21661;50.794;-1.066;2023-11-22T05:27:10;7.90;99.90
35559;DHT22;21661;50.794;-1.066;2023-11-22T05:29:36;7.90;99.90
35559;DHT22;21661;50.794;-1.066;2023-11-22T05:32:02;7.90;99.90
35559;DHT22;21661;50.794;-1.066;2023-11-22T05:34:29;7.90;99.90
35559;DHT22;21661;50.794;-1.066;2023-11-22T05:36:54;7.90;99.90
35559;DHT22;21661;50.794;-1.066;2023-11-22T05:39:20;7.90;99.90
35559;DHT22;21661;50.794;-1.066;2023-11-22T05:41:47;8.00;99.90
35559;DHT22;21661;50.794;-1.066;2023-11-22T05:44:14;8.00;99.90
35559;DHT22;21661;50.794;-1.066;2023-11-22T05:46:39;8.10;99.90
35559;DHT22;21661;50.794;-1.066;2023-11-22T05:49:05;8.20;99.90
35559;DHT22;21661;50.794;-1.066;2023-11-22T05:51:31;8.10;99.90
35559;DHT22;21661;50.794;-1.066;2023-11-22T05:53:56;8.10;99.90
35559;DHT22;21661;50.794;-1.066;2023-11-22T05:56:22;8.10;99.90
35559;DHT22;21661;50.794;-1.066;2023-11-22T05:58:47;8.10;99.90
35559;DHT22;21661;50.794;-1.066;2023-11-22T06:01:13;8.00;99.90
35559;DHT22;21661;50.794;-1.066;2023-11-22T06:03:39;8.00;99.90
35559;DHT22;21661;50.794;-1.066;2023-11-22T06:06:05;8.00;99.90
35559;DHT22;21661;50.794;-1.066;2023-11-22T06:08:31;8.10;99.90
35559;DHT22;21661;50.794;-1.066;2023-11-22T06:10:57;8.00;99.90
35559;DHT22;21661;50.794;-1.066;2023-11-22T06:13:23;8.00;99.90
35559;DHT22;21661;50.794;-1.066;2023-11-22T06:15:49;8.00;99.90
35559;DHT22;21661;50.794;-1.066;2023-11-22T06:18:15;7.90;99.90
35559;DHT22;21661;50.794;-1.066;2023-11-22T06:20:44;7.90;99.90
35559;DHT22;21661;50.794;-1.066;2023-11-22T06:23:10;7.90;99.90
35559;DHT22;21661;50.794;-1.066;2023-11-22T06:25:36;7.90;99.90
35559;DHT22;21661;50.794;-1.066;2023-11-22T06:28:02;8.00;99.90
35559;DHT22;21661;50.794;-1.066;2023-11-22T06:30:28;7.80;99.90
35559;DHT22;21661;50.794;-1.066;2023-11-22T06:32:56;7.80;99.90
35559;DHT22;21661;50.794;-1.066;2023-11-22T06:35:22;7.80;99.90
35559;DHT22;21661;50.794;-1.066;2023-11-22T06:37:47;7.80;99.90
35559;DHT22;21661;50.794;-1.066;2023-11-22T06:40:13;7.80;99.90
35559;DHT22;21661;50.794;-1.066;2023-11-22T06:42:40;7.80;99.90
35559;DHT22;21661;50.794;-1.066;2023-11-22T06:45:06;7.80;99.90
35559;DHT22;21661;50.794;-1.066;2023-11-22T06:47:38;7.80;99.90
35559;DHT22;21661;50.794;-1.066;2023-11-22T06:50:04;7.80;99.90
35559;DHT22;21661;50.794;-1.066;2023-11-22T06:52:35;7.80;99.90
35559;DHT22;21661;50.794;-1.066;2023-11-22T06:55:01;7.80;99.90
35559;DHT22;21661;50.794;-1.066;2023-11-22T06:57:26;7.80;99.90
35559;DHT22;21661;50.794;-1.066;2023-11-22T06:59:55;7.80;99.90
35559;DHT22;21661;50.794;-1.066;2023-11-22T07:02:21;7.90;99.90
35559;DHT22;21661;50.794;-1.066;2023-11-22T07:04:47;7.80;99.90
35559;DHT22;21661;50.794;-1.066;2023-11-22T07:07:12;7.80;99.90
35559;DHT22;21661;50.794;-1.066;2023-11-22T07:09:42;7.90;99.90
35559;DHT22;21661;50.794;-1.066;2023-11-22T07:12:08;8.00;99.90
35559;DHT22;21661;50.794;-1.066;2023-11-22T07:14:34;8.00;99.90
35559;DHT22;21661;50.794;-1.066;2023-11-22T07:16:59;8.00;99.90
35559;DHT22;21661;50.794;-1.066;2023-11-22T07:19:25;8.00;99.90
35559;DHT22;21661;50.794;-1.066;2023-11-22T07:21:50;8.10;99.90
35559;DHT22;21661;50.794;-1.066;2023-11-22T07:24:17;8.00;99.90
35559;DHT22;21661;50.794;-1.066;2023-11-22T07:26:44;8.10;99.90
35559;DHT22;21661;50.794;-1.066;2023-11-22T07:29:09;8.20;99.90
35559;DHT22;21661;50.794;-1.066;2023-11-22T07:31:37;8.20;99.90
35559;DHT22;21661;50.794;-1.066;2023-11-22T07:34:03;8.30;99.90
35559;DHT22;21661;50.794;-1.066;2023-11-22T07:36:28;8.30;99.90
35559;DHT22;21661;50.794;-1.066;2023-11-22T07:38:56;8.30;99.90
35559;DHT22;21661;50.794;-1.066;2023-11-22T07:41:22;8.30;99.90
35559;DHT22;21661;50.794;-1.066;2023-11-22T07:43:47;8.30;99.90
35559;DHT22;21661;50.794;-1.066;2023-11-22T07:46:13;8.30;99.90
35559;DHT22;21661;50.794;-1.066;2023-11-22T07:48:39;8.30;99.90
35559;DHT22;21661;50.794;-1.066;2023-11-22T07:51:07;8.30;99.90
35559;DHT22;21661;50.794;-1.066;2023-11-22T07:53:33;8.40;99.90
35559;DHT22;21661;50.794;-1.066;2023-11-22T07:56:03;8.50;99.90
35559;DHT22;21661;50.794;-1.066;2023-11-22T07:58:30;8.40;99.90
35559;DHT22;21661;50.794;-1.066;2023-11-22T08:00:57;8.40;99.90
35559;DHT22;21661;50.794;-1.066;2023-11-22T08:03:23;8.40;99.90
35559;DHT22;21661;50.794;-1.066;2023-11-22T08:05:53;8.50;99.90
35559;DHT22;21661;50.794;-1.066;2023-11-22T08:08:22;8.50;99.90
35559;DHT22;21661;50.794;-1.066;2023-11-22T08:10:49;8.40;99.90
35559;DHT22;21661;50.794;-1.066;2023-11-22T08:13:17;8.40;99.90
35559;DHT22;21661;50.794;-1.066;2023-11-22T08:15:45;8.40;99.90
35559;DHT22;21661;50.794;-1.066;2023-11-22T08:18:12;8.40;99.90
35559;DHT22;21661;50.794;-1.066;2023-11-22T08:20:38;8.40;99.90
35559;DHT22;21661;50.794;-1.066;2023-11-22T08:23:04;8.50;99.90
35559;DHT22;21661;50.794;-1.066;2023-11-22T08:25:31;8.60;99.90
35559;DHT22;21661;50.794;-1.066;2023-11-22T08:27:57;8.60;99.90
35559;DHT22;21661;50.794;-1.066;2023-11-22T08:30:23;8.70;99.90
35559;DHT22;21661;50.794;-1.066;2023-11-22T08:32:48;8.70;99.90
35559;DHT22;21661;50.794;-1.066;2023-11-22T08:35:19;8.70;99.90
35559;DHT22;21661;50.794;-1.066;2023-11-22T08:37:47;8.60;99.90
35559;DHT22;21661;50.794;-1.066;2023-11-22T08:40:13;8.70;99.90
35559;DHT22;21661;50.794;-1.066;2023-11-22T08:42:48;8.70;99.90
35559;DHT22;21661;50.794;-1.066;2023-11-22T08:45:13;8.70;99.90
35559;DHT22;21661;50.794;-1.066;2023-11-22T08:47:40;8.70;99.90
35559;DHT22;21661;50.794;-1.066;2023-11-22T08:50:07;8.70;99.90
35559;DHT22;21661;50.794;-1.066;2023-11-22T08:52:34;8.70;99.90
35559;DHT22;21661;50.794;-1.066;2023-11-22T08:54:59;8.70;99.90
35559;DHT22;21661;50.794;-1.066;2023-11-22T08:57:26;8.70;99.90
35559;DHT22;21661;50.794;-1.066;2023-11-22T08:59:52;8.70;99.90
35559;DHT22;21661;50.794;-1.066;2023-11-22T09:02:19;8.70;99.90
35559;DHT22;21661;50.794;-1.066;2023-11-22T09:04:47;8.70;99.90
35559;DHT22;21661;50.794;-1.066;2023-11-22T09:07:13;8.80;99.90
35559;DHT22;21661;50.794;-1.066;2023-11-22T09:09:40;8.80;99.90
35559;DHT22;21661;50.794;-1.066;2023-11-22T09:12:07;9.00;99.90
35559;DHT22;21661;50.794;-1.066;2023-11-22T09:14:38;9.10;99.90
35559;DHT22;21661;50.794;-1.066;2023-11-22T09:17:06;9.20;99.90
35559;DHT22;21661;50.794;-1.066;2023-11-22T09:19:32;9.30;99.90
35559;DHT22;21661;50.794;-1.066;2023-11-22T09:21:59;9.30;99.90
35559;DHT22;21661;50.794;-1.066;2023-11-22T09:24:25;9.40;99.90
35559;DHT22;21661;50.794;-1.066;2023-11-22T09:26:52;9.40;99.90
35559;DHT22;21661;50.794;-1.066;2023-11-22T09:29:18;9.40;99.90
35559;DHT22;21661;50.794;-1.066;2023-11-22T09:31:44;9.40;99.90
35559;DHT22;21661;50.794;-1.066;2023-11-22T09:34:12;9.40;99.90
35559;DHT22;21661;50.794;-1.066;2023-11-22T09:36:38;9.40;99.90
35559;DHT22;21661;50.794;-1.066;2023-11-22T09:39:04;9.40;99.90
35559;DHT22;21661;50.794;-1.066;2023-11-22T09:41:34;9.40;99.90
35559;DHT22;21661;50.794;-1.066;2023-11-22T09:44:00;9.50;99.90
35559;DHT22;21661;50.794;-1.066;2023-11-22T09:46:26;9.60;99.90
35559;DHT22;21661;50.794;-1.066;2023-11-22T09:48:53;9.50;99.90
35559;DHT22;21661;50.794;-1.066;2023-11-22T09:51:27;9.60;99.90
35559;DHT22;21661;50.794;-1.066;2023-11-22T09:56:20;9.50;99.90
35559;DHT22;21661;50.794;-1.066;2023-11-22T09:58:47;9.40;99.90
35559;DHT22;21661;50.794;-1.066;2023-11-22T10:01:17;9.50;99.90
35559;DHT22;21661;50.794;-1.066;2023-11-22T10:03:42;9.50;99.90
35559;DHT22;21661;50.794;-1.066;2023-11-22T10:06:08;9.60;99.90
35559;DHT22;21661;50.794;-1.066;2023-11-22T10:08:34;9.60;99.90
35559;DHT22;21661;50.794;-1.066;2023-11-22T10:11:01;9.60;99.90
35559;DHT22;21661;50.794;-1.066;2023-11-22T10:13:27;9.60;99.90
35559;DHT22;21661;50.794;-1.066;2023-11-22T10:15:53;9.70;99.90
35559;DHT22;21661;50.794;-1.066;2023-11-22T10:18:19;9.70;99.90
35559;DHT22;21661;50.794;-1.066;2023-11-22T10:20:48;9.80;99.90
35559;DHT22;21661;50.794;-1.066;2023-11-22T10:23:16;9.80;99.90
35559;DHT22;21661;50.794;-1.066;2023-11-22T10:25:47;9.80;99.90
35559;DHT22;21661;50.794;-1.066;2023-11-22T10:28:15;9.70;99.90
35559;DHT22;21661;50.794;-1.066;2023-11-22T10:30:41;9.80;99.90
35559;DHT22;21661;50.794;-1.066;2023-11-22T10:33:09;9.90;99.90
35559;DHT22;21661;50.794;-1.066;2023-11-22T10:38:13;9.90;99.90
35559;DHT22;21661;50.794;-1.066;2023-11-22T10:40:38;9.90;99.90
35559;DHT22;21661;50.794;-1.066;2023-11-22T10:43:05;10.00;99.90
35559;DHT22;21661;50.794;-1.066;2023-11-22T10:45:33;10.00;99.90
35559;DHT22;21661;50.794;-1.066;2023-11-22T10:48:00;10.10;99.90
35559;DHT22;21661;50.794;-1.066;2023-11-22T10:50:26;10.10;99.90
35559;DHT22;21661;50.794;-1.066;2023-11-22T10:52:57;10.10;99.90
35559;DHT22;21661;50.794;-1.066;2023-11-22T10:55:27;10.20;99.90
35559;DHT22;21661;50.794;-1.066;2023-11-22T10:57:56;10.10;99.90
35559;DHT22;21661;50.794;-1.066;2023-11-22T11:00:24;10.20;99.90
35559;DHT22;21661;50.794;-1.066;2023-11-22T11:02:59;10.20;99.90
35559;DHT22;21661;50.794;-1.066;2023-11-22T11:05:28;10.20;99.90
35559;DHT22;21661;50.794;-1.066;2023-11-22T11:08:01;10.20;99.90
35559;DHT22;21661;50.794;-1.066;2023-11-22T11:10:28;10.20;99.90
35559;DHT22;21661;50.794;-1.066;2023-11-22T11:12:55;10.30;99.90
35559;DHT22;21661;50.794;-1.066;2023-11-22T11:15:21;10.30;99.90
35559;DHT22;21661;50.794;-1.066;2023-11-22T11:17:47;10.40;99.90
35559;DHT22;21661;50.794;-1.066;2023-11-22T11:20:18;10.40;99.90
35559;DHT22;21661;50.794;-1.066;2023-11-22T11:22:47;10.40;99.90
35559;DHT22;21661;50.794;-1.066;2023-11-22T11:25:17;10.40;99.90
35559;DHT22;21661;50.794;-1.066;2023-11-22T11:27:56;10.50;99.90
35559;DHT22;21661;50.794;-1.066;2023-11-22T11:32:58;10.60;99.90
35559;DHT22;21661;50.794;-1.066;2023-11-22T11:35:43;10.60;99.90
35559;DHT22;21661;50.794;-1.066;2023-11-22T11:38:15;10.60;99.90
35559;DHT22;21661;50.794;-1.066;2023-11-22T11:40:42;10.60;99.90
35559;DHT22;21661;50.794;-1.066;2023-11-22T11:43:09;10.70;99.90
35559;DHT22;21661;50.794;-1.066;2023-11-22T11:45:39;10.70;99.90
35559;DHT22;21661;50.794;-1.066;2023-11-22T11:48:06;10.70;99.90
35559;DHT22;21661;50.794;-1.066;2023-11-22T11:50:32;10.70;99.90
35559;DHT22;21661;50.794;-1.066;2023-11-22T11:52:58;10.80;99.90
35559;DHT22;21661;50.794;-1.066;2023-11-22T11:55:25;10.90;99.90
35559;DHT22;21661;50.794;-1.066;2023-11-22T11:57:54;10.90;99.90
35559;DHT22;21661;50.794;-1.066;2023-11-22T12:00:20;10.90;99.90
35559;DHT22;21661;50.794;-1.066;2023-11-22T12:02:49;10.90;99.90
35559;DHT22;21661;50.794;-1.066;2023-11-22T12:05:14;10.90;99.90
35559;DHT22;21661;50.794;-1.066;2023-11-22T12:07:40;10.90;99.90
35559;DHT22;21661;50.794;-1.066;2023-11-22T12:10:06;10.90;99.90
35559;DHT22;21661;50.794;-1.066;2023-11-22T12:12:32;10.90;99.90
35559;DHT22;21661;50.794;-1.066;2023-11-22T12:14:58;10.80;99.90
35559;DHT22;21661;50.794;-1.066;2023-11-22T12:17:25;10.90;99.90
35559;DHT22;21661;50.794;-1.066;2023-11-22T12:19:51;10.90;99.90
35559;DHT22;21661;50.794;-1.066;2023-11-22T12:22:17;10.90;99.90
35559;DHT22;21661;50.794;-1.066;2023-11-22T12:24:43;10.90;99.90
35559;DHT22;21661;50.794;-1.066;2023-11-22T12:27:12;10.80;99.90
35559;DHT22;21661;50.794;-1.066;2023-11-22T12:29:39;10.90;99.90
35559;DHT22;21661;50.794;-1.066;2023-11-22T12:32:07;11.00;99.90
35559;DHT22;21661;50.794;-1.066;2023-11-22T12:34:33;10.90;99.90
35559;DHT22;21661;50.794;-1.066;2023-11-22T12:36:59;11.10;99.90
35559;DHT22;21661;50.794;-1.066;2023-11-22T12:39:25;11.00;99.90
35559;DHT22;21661;50.794;-1.066;2023-11-22T12:41:52;11.00;99.90
35559;DHT22;21661;50.794;-1.066;2023-11-22T12:44:19;11.10;99.90
35559;DHT22;21661;50.794;-1.066;2023-11-22T12:46:49;11.20;99.90
35559;DHT22;21661;50.794;-1.066;2023-11-22T12:49:16;11.20;99.90
35559;DHT22;21661;50.794;-1.066;2023-11-22T12:51:48;11.30;99.90
35559;DHT22;21661;50.794;-1.066;2023-11-22T12:54:14;11.30;99.90
35559;DHT22;21661;50.794;-1.066;2023-11-22T12:56:41;11.40;99.90
35559;DHT22;21661;50.794;-1.066;2023-11-22T12:59:07;11.40;99.90
35559;DHT22;21661;50.794;-1.066;2023-11-22T13:01:33;11.40;99.90
35559;DHT22;21661;50.794;-1.066;2023-11-22T13:04:00;11.40;99.90
35559;DHT22;21661;50.794;-1.066;2023-11-22T13:06:25;11.50;99.90
35559;DHT22;21661;50.794;-1.066;2023-11-22T13:08:52;11.50;99.90
35559;DHT22;21661;50.794;-1.066;2023-11-22T13:11:18;11.50;99.90
35559;DHT22;21661;50.794;-1.066;2023-11-22T13:13:44;11.50;99.90
35559;DHT22;21661;50.794;-1.066;2023-11-22T13:16:12;11.50;99.90
35559;DHT22;21661;50.794;-1.066;2023-11-22T13:18:38;11.60;99.90
35559;DHT22;21661;50.794;-1.066;2023-11-22T13:21:04;11.60;99.90
35559;DHT22;21661;50.794;-1.066;2023-11-22T13:23:30;11.60;99.90
35559;DHT22;21661;50.794;-1.066;2023-11-22T13:25:56;11.60;99.90
35559;DHT22;21661;50.794;-1.066;2023-11-22T13:28:21;11.60;99.90
35559;DHT22;21661;50.794;-1.066;2023-11-22T13:30:49;11.50;99.90
35559;DHT22;21661;50.794;-1.066;2023-11-22T13:33:16;11.60;99.90
35559;DHT22;21661;50.794;-1.066;2023-11-22T13:35:41;11.80;99.90
35559;DHT22;21661;50.794;-1.066;2023-11-22T13:38:07;11.70;99.90
35559;DHT22;21661;50.794;-1.066;2023-11-22T13:40:36;11.70;99.90
35559;DHT22;21661;50.794;-1.066;2023-11-22T13:43:05;11.60;99.90
35559;DHT22;21661;50.794;-1.066;2023-11-22T13:45:30;11.60;99.90
35559;DHT22;21661;50.794;-1.066;2023-11-22T13:47:56;11.60;99.90
35559;DHT22;21661;50.794;-1.066;2023-11-22T13:50:32;11.60;99.90
35559;DHT22;21661;50.794;-1.066;2023-11-22T13:52:58;11.60;99.90
35559;DHT22;21661;50.794;-1.066;2023-11-22T13:55:24;11.60;99.90
35559;DHT22;21661;50.794;-1.066;2023-11-22T13:57:55;11.60;99.90
35559;DHT22;21661;50.794;-1.066;2023-11-22T14:00:24;11.50;99.90
35559;DHT22;21661;50.794;-1.066;2023-11-22T14:02:56;11.60;99.90
35559;DHT22;21661;50.794;-1.066;2023-11-22T14:05:23;11.60;99.90
35559;DHT22;21661;50.794;-1.066;2023-11-22T14:07:48;11.60;99.90
35559;DHT22;21661;50.794;-1.066;2023-11-22T14:10:14;11.60;99.90
35559;DHT22;21661;50.794;-1.066;2023-11-22T14:12:42;11.60;99.90
35559;DHT22;21661;50.794;-1.066;2023-11-22T14:15:10;11.70;99.90
35559;DHT22;21661;50.794;-1.066;2023-11-22T14:17:36;11.60;99.90
35559;DHT22;21661;50.794;-1.066;2023-11-22T14:20:05;11.60;99.90
35559;DHT22;21661;50.794;-1.066;2023-11-22T14:22:32;11.60;99.90
35559;DHT22;21661;50.794;-1.066;2023-11-22T14:24:58;11.60;99.90
35559;DHT22;21661;50.794;-1.066;2023-11-22T14:27:24;11.70;99.90
35559;DHT22;21661;50.794;-1.066;2023-11-22T14:29:49;11.70;99.90
35559;DHT22;21661;50.794;-1.066;2023-11-22T14:32:16;11.80;99.90
35559;DHT22;21661;50.794;-1.066;2023-11-22T14:34:42;11.80;99.90
35559;DHT22;21661;50.794;-1.066;2023-11-22T14:37:11;11.80;99.90
35559;DHT22;21661;50.794;-1.066;2023-11-22T14:39:37;11.80;99.90
35559;DHT22;21661;50.794;-1.066;2023-11-22T14:42:03;11.90;99.90
35559;DHT22;21661;50.794;-1.066;2023-11-22T14:44:31;11.80;99.90
35559;DHT22;21661;50.794;-1.066;2023-11-22T14:46:57;11.90;99.90
35559;DHT22;21661;50.794;-1.066;2023-11-22T14:49:27;11.90;99.90
35559;DHT22;21661;50.794;-1.066;2023-11-22T14:51:53;11.80;99.90
35559;DHT22;21661;50.794;-1.066;2023-11-22T14:54:20;11.90;99.90
35559;DHT22;21661;50.794;-1.066;2023-11-22T14:56:45;11.80;99.90
35559;DHT22;21661;50.794;-1.066;2023-11-22T14:59:11;11.90;99.90
35559;DHT22;21661;50.794;-1.066;2023-11-22T15:01:38;11.90;99.90
35559;DHT22;21661;50.794;-1.066;2023-11-22T15:04:05;11.80;99.90
35559;DHT22;21661;50.794;-1.066;2023-11-22T15:06:31;11.80;99.90
35559;DHT22;21661;50.794;-1.066;2023-11-22T15:08:56;11.90;99.90
35559;DHT22;21661;50.794;-1.066;2023-11-22T15:11:24;11.90;99.90
35559;DHT22;21661;50.794;-1.066;2023-11-22T15:13:51;11.80;99.90
35559;DHT22;21661;50.794;-1.066;2023-11-22T15:16:16;11.90;99.90
35559;DHT22;21661;50.794;-1.066;2023-11-22T15:18:42;11.90;99.90
35559;DHT22;21661;50.794;-1.066;2023-11-22T15:21:08;11.80;99.90
35559;DHT22;21661;50.794;-1.066;2023-11-22T15:23:34;11.80;99.90
35559;DHT22;21661;50.794;-1.066;2023-11-22T15:25:59;12.00;99.90
35559;DHT22;21661;50.794;-1.066;2023-11-22T15:28:25;12.00;99.90